createdAt,value
2022-08-14T00:00:15.855Z,20.80
2022-08-14T00:02:43.125Z,20.76
2022-08-14T00:05:18.888Z,20.73
2022-08-14T00:07:46.430Z,20.81
2022-08-14T00:10:52.438Z,20.85
2022-08-14T00:13:15.245Z,20.92
2022-08-14T00:15:50.017Z,20.89
2022-08-14T00:18:30.428Z,20.83
2022-08-14T00:21:12.045Z,20.81
2022-08-14T00:23:44.864Z,20.83
2022-08-14T00:26:26.873Z,20.79
2022-08-14T00:28:54.961Z,20.70
2022-08-14T00:31:35.387Z,20.64
2022-08-14T00:34:37.376Z,20.63
2022-08-14T00:37:05.037Z,20.67
2022-08-14T00:39:31.920Z,20.75
2022-08-14T00:42:05.855Z,20.76
2022-08-14T00:44:38.868Z,20.73
2022-08-14T00:47:10.972Z,20.70
2022-08-14T00:49:44.903Z,20.55
2022-08-14T00:52:13.859Z,20.47
2022-08-14T00:54:47.884Z,20.42
2022-08-14T00:57:15.024Z,20.44
2022-08-14T00:59:54.846Z,20.40
2022-08-14T01:02:24.781Z,20.36
2022-08-14T01:05:07.846Z,20.24
2022-08-14T01:07:38.592Z,20.25
2022-08-14T01:10:20.860Z,20.10
2022-08-14T01:12:49.890Z,20.06
2022-08-14T01:15:48.408Z,19.95
2022-08-14T01:18:33.157Z,19.86
2022-08-14T01:21:11.251Z,19.81
2022-08-14T01:23:46.800Z,19.80
2022-08-14T01:26:23.572Z,19.85
2022-08-14T01:29:02.111Z,19.92
2022-08-14T01:31:37.144Z,19.90
2022-08-14T01:35:18.699Z,19.95
2022-08-14T01:36:59.864Z,19.98
2022-08-14T01:39:28.283Z,19.95
2022-08-14T01:42:08.857Z,19.97
2022-08-14T01:44:35.731Z,19.91
2022-08-14T01:47:22.124Z,19.92
2022-08-14T01:49:59.790Z,19.92
2022-08-14T01:52:58.684Z,19.93
2022-08-14T01:55:30.489Z,19.92
2022-08-14T01:58:19.442Z,19.94
2022-08-14T02:01:02.895Z,19.87
2022-08-14T02:03:36.856Z,19.85
2022-08-14T02:06:32.098Z,19.85
2022-08-14T02:09:00.270Z,19.88
2022-08-14T02:11:34.007Z,19.93
2022-08-14T02:14:07.555Z,19.86
2022-08-14T02:16:46.036Z,19.87
2022-08-14T02:19:23.824Z,19.84
2022-08-14T02:21:57.853Z,19.80
2022-08-14T02:24:40.037Z,19.74
2022-08-14T02:28:24.170Z,19.69
2022-08-14T02:30:03.223Z,19.51
2022-08-14T02:32:37.895Z,19.47
2022-08-14T02:35:16.643Z,19.50
2022-08-14T02:37:51.836Z,19.53
2022-08-14T02:40:19.383Z,19.56
2022-08-14T02:42:54.587Z,19.59
2022-08-14T02:45:32.878Z,19.56
2022-08-14T02:48:10.491Z,19.66
2022-08-14T02:50:55.441Z,19.68
2022-08-14T02:53:29.294Z,19.56
2022-08-14T02:55:56.395Z,19.58
2022-08-14T02:58:37.180Z,19.59
2022-08-14T03:01:10.596Z,19.61
2022-08-14T03:03:43.837Z,19.69
2022-08-14T03:06:10.921Z,19.85
2022-08-14T03:08:46.004Z,19.84
2022-08-14T03:11:13.336Z,19.67
2022-08-14T03:13:50.999Z,19.70
2022-08-14T03:16:26.656Z,19.63
2022-08-14T03:19:01.098Z,19.49
2022-08-14T03:21:36.839Z,19.41
2022-08-14T03:24:21.707Z,19.29
2022-08-14T03:26:57.652Z,19.30
2022-08-14T03:29:26.253Z,19.20
2022-08-14T03:31:53.302Z,19.24
2022-08-14T03:34:48.334Z,19.28
2022-08-14T03:37:38.964Z,19.38
2022-08-14T03:40:18.377Z,19.33
2022-08-14T03:42:45.414Z,19.45
2022-08-14T03:45:33.931Z,19.46
2022-08-14T03:48:26.748Z,19.45
2022-08-14T03:51:03.804Z,19.40
2022-08-14T03:53:31.348Z,19.38
2022-08-14T03:56:08.049Z,19.29
2022-08-14T03:58:55.807Z,19.26
2022-08-14T04:01:29.442Z,19.14
2022-08-14T04:04:12.837Z,19.24
2022-08-14T04:06:42.678Z,19.37
2022-08-14T04:09:20.829Z,19.35
2022-08-14T04:11:53.212Z,19.45
2022-08-14T04:14:26.831Z,19.47
2022-08-14T04:16:53.612Z,19.29
2022-08-14T04:19:32.871Z,19.37
2022-08-14T04:22:04.380Z,19.20
2022-08-14T04:24:39.333Z,19.40
2022-08-14T04:27:17.057Z,19.45
2022-08-14T04:29:44.865Z,19.38
2022-08-14T04:33:02.433Z,19.32
2022-08-14T04:35:07.356Z,19.30
2022-08-14T04:37:59.833Z,19.30
2022-08-14T04:40:45.100Z,19.23
2022-08-14T04:43:39.237Z,19.25
2022-08-14T04:46:08.065Z,19.12
2022-08-14T04:48:51.098Z,19.32
2022-08-14T04:51:25.908Z,19.46
2022-08-14T04:54:00.809Z,19.45
2022-08-14T04:56:34.789Z,19.37
2022-08-14T04:59:12.866Z,19.33
2022-08-14T05:01:48.969Z,19.35
2022-08-14T05:04:24.813Z,19.34
2022-08-14T05:06:53.440Z,19.53
2022-08-14T05:09:30.592Z,19.70
2022-08-14T05:12:33.925Z,19.70
2022-08-14T05:14:55.217Z,19.66
2022-08-14T05:17:28.619Z,19.65
2022-08-14T05:21:57.782Z,19.66
2022-08-14T05:22:52.064Z,19.64
2022-08-14T05:25:30.943Z,19.61
2022-08-14T05:28:11.410Z,19.60
2022-08-14T05:30:49.834Z,19.37
2022-08-14T05:33:18.771Z,19.51
2022-08-14T05:35:46.663Z,19.52
2022-08-14T05:38:22.286Z,19.66
2022-08-14T05:40:58.087Z,19.64
2022-08-14T05:43:40.837Z,19.54
2022-08-14T05:46:15.293Z,19.72
2022-08-14T05:48:48.877Z,19.74
2022-08-14T05:51:15.585Z,19.80
2022-08-14T05:54:01.705Z,19.90
2022-08-14T05:56:37.123Z,20.01
2022-08-14T05:59:11.820Z,20.01
2022-08-14T06:01:38.745Z,20.11
2022-08-14T06:04:11.819Z,20.13
2022-08-14T06:06:39.142Z,19.95
2022-08-14T06:09:13.828Z,19.84
2022-08-14T06:11:40.511Z,19.74
2022-08-14T06:14:21.544Z,19.70
2022-08-14T06:16:57.817Z,19.72
2022-08-14T06:19:30.832Z,19.74
2022-08-14T06:21:59.208Z,19.73
2022-08-14T06:24:26.724Z,19.89
2022-08-14T06:27:04.267Z,20.00
2022-08-14T06:29:32.384Z,19.91
2022-08-14T06:32:37.298Z,19.82
2022-08-14T06:35:04.294Z,19.95
2022-08-14T06:37:48.813Z,19.96
2022-08-14T06:40:26.769Z,19.94
2022-08-14T06:43:03.394Z,20.12
2022-08-14T06:45:53.990Z,20.20
2022-08-14T06:48:32.597Z,20.33
2022-08-14T06:51:01.978Z,20.43
2022-08-14T06:53:34.795Z,20.47
2022-08-14T06:56:02.450Z,20.59
2022-08-14T06:58:36.858Z,20.63
2022-08-14T07:01:28.651Z,20.50
2022-08-14T07:04:24.367Z,20.46
2022-08-14T07:06:55.701Z,20.35
2022-08-14T07:09:43.829Z,20.48
2022-08-14T07:12:54.127Z,20.64
2022-08-14T07:15:12.804Z,20.74
2022-08-14T07:17:46.443Z,20.78
2022-08-14T07:20:31.035Z,20.72
2022-08-14T07:23:03.886Z,20.76
2022-08-14T07:25:42.262Z,20.70
2022-08-14T07:28:20.513Z,20.75
2022-08-14T07:30:54.955Z,20.78
2022-08-14T07:33:24.519Z,20.83
2022-08-14T07:36:03.353Z,20.86
2022-08-14T07:38:52.106Z,20.92
2022-08-14T07:41:31.196Z,20.97
2022-08-14T07:44:22.590Z,21.04
2022-08-14T07:46:53.845Z,21.10
2022-08-14T07:49:21.390Z,21.14
2022-08-14T07:51:57.787Z,21.18
2022-08-14T07:54:32.805Z,21.26
2022-08-14T07:57:00.092Z,21.31
2022-08-14T07:59:42.544Z,21.35
2022-08-14T08:02:25.793Z,21.41
2022-08-14T08:04:59.420Z,21.45
2022-08-14T08:07:33.790Z,21.54
2022-08-14T08:11:02.344Z,21.62
2022-08-14T08:13:24.157Z,21.78
2022-08-14T08:16:00.871Z,21.92
2022-08-14T08:18:36.073Z,22.02
2022-08-14T08:21:02.848Z,22.10
2022-08-14T08:23:43.693Z,22.18
2022-08-14T08:26:24.782Z,22.32
2022-08-14T08:28:58.213Z,22.39
2022-08-14T08:31:35.182Z,22.49
2022-08-14T08:34:04.364Z,22.54
2022-08-14T08:36:46.977Z,22.65
2022-08-14T08:41:54.079Z,22.74
2022-08-14T08:44:31.772Z,22.76
2022-08-14T08:47:21.949Z,22.78
2022-08-14T08:50:01.816Z,22.87
2022-08-14T08:52:52.346Z,22.94
2022-08-14T08:55:35.781Z,22.94
2022-08-14T08:58:05.561Z,23.02
2022-08-14T09:00:58.849Z,23.10
2022-08-14T09:03:27.389Z,23.19
2022-08-14T09:07:00.835Z,23.20
2022-08-14T09:09:05.783Z,23.30
2022-08-14T09:11:34.793Z,23.34
2022-08-14T09:14:09.790Z,23.35
2022-08-14T09:16:37.209Z,23.51
2022-08-14T09:19:10.781Z,23.58
2022-08-14T09:21:45.791Z,23.55
2022-08-14T09:24:29.566Z,23.65
2022-08-14T09:27:06.714Z,23.65
2022-08-14T09:29:33.543Z,23.72
2022-08-14T09:32:57.687Z,23.83
2022-08-14T09:35:16.777Z,23.92
2022-08-14T09:37:58.715Z,24.01
2022-08-14T09:40:34.795Z,24.08
2022-08-14T09:43:23.753Z,24.07
2022-08-14T09:45:53.409Z,24.07
2022-08-14T09:48:31.384Z,24.07
2022-08-14T09:54:19.164Z,24.39
2022-08-14T09:56:31.200Z,24.47
2022-08-14T09:59:16.989Z,24.41
2022-08-14T10:01:52.762Z,24.51
2022-08-14T10:04:34.308Z,24.58
2022-08-14T10:07:03.453Z,24.67
2022-08-14T10:09:36.776Z,24.70
2022-08-14T10:12:06.812Z,24.83
2022-08-14T10:14:53.430Z,24.81
2022-08-14T10:17:27.650Z,25.07
2022-08-14T10:20:40.281Z,25.11
2022-08-14T10:23:12.810Z,25.16
2022-08-14T10:25:50.910Z,25.19
2022-08-14T10:28:51.467Z,25.31
2022-08-14T10:31:25.789Z,25.42
2022-08-14T10:34:13.185Z,25.51
2022-08-14T10:36:50.261Z,25.45
2022-08-14T10:39:29.992Z,25.45
2022-08-14T10:42:18.118Z,25.39
2022-08-14T10:44:52.611Z,25.33
2022-08-14T10:47:40.065Z,25.29
2022-08-14T10:50:21.796Z,25.30
2022-08-14T10:52:56.725Z,25.26
2022-08-14T10:55:38.463Z,25.15
2022-08-14T10:58:11.707Z,25.06
2022-08-14T11:01:01.777Z,25.01
2022-08-14T11:03:56.630Z,24.98
2022-08-14T11:06:24.567Z,24.94
2022-08-14T11:08:58.807Z,24.91
2022-08-14T11:11:37.105Z,24.93
2022-08-14T11:14:12.761Z,24.84
2022-08-14T11:16:41.740Z,24.71
2022-08-14T11:19:28.753Z,24.55
2022-08-14T11:22:02.773Z,24.39
2022-08-14T11:24:54.679Z,24.20
2022-08-14T11:27:33.480Z,24.08
2022-08-14T11:30:50.343Z,23.94
2022-08-14T11:33:05.384Z,23.79
2022-08-14T11:35:37.014Z,23.66
2022-08-14T11:38:19.751Z,23.55
2022-08-14T11:40:47.450Z,23.45
2022-08-14T11:43:22.802Z,23.43
2022-08-14T11:45:56.479Z,23.36
2022-08-14T11:49:02.018Z,23.36
2022-08-14T11:51:30.395Z,23.25
2022-08-14T11:54:03.740Z,23.19
2022-08-14T11:56:36.062Z,23.15
2022-08-14T11:59:10.272Z,23.13
2022-08-14T12:01:46.096Z,23.09
2022-08-14T12:04:33.129Z,23.06
2022-08-14T12:07:01.463Z,23.08
2022-08-14T12:09:38.762Z,23.05
2022-08-14T12:12:14.129Z,23.11
2022-08-14T12:14:55.748Z,23.12
2022-08-14T12:17:24.115Z,23.13
2022-08-14T12:19:58.743Z,23.18
2022-08-14T12:22:33.590Z,23.22
2022-08-14T12:25:11.090Z,23.27
2022-08-14T12:27:41.660Z,23.35
2022-08-14T12:30:20.947Z,23.37
2022-08-14T12:32:47.945Z,23.49
2022-08-14T12:35:21.763Z,23.56
2022-08-14T12:37:49.725Z,23.66
2022-08-14T12:40:24.774Z,23.70
2022-08-14T12:42:56.550Z,23.75
2022-08-14T12:45:36.731Z,23.82
2022-08-14T12:48:21.279Z,23.87
2022-08-14T12:50:58.741Z,23.95
2022-08-14T12:53:38.163Z,23.99
2022-08-14T12:56:21.943Z,24.02
2022-08-14T12:59:00.168Z,24.09
2022-08-14T13:01:59.633Z,24.15
2022-08-14T13:04:29.913Z,24.21
2022-08-14T13:07:02.754Z,24.28
2022-08-14T13:09:36.421Z,24.58
2022-08-14T13:12:33.450Z,25.00
2022-08-14T13:15:02.730Z,25.62
2022-08-14T13:17:51.048Z,26.04
2022-08-14T13:20:24.784Z,26.65
2022-08-14T13:23:01.752Z,26.95
2022-08-14T13:25:28.326Z,27.09
2022-08-14T13:28:03.785Z,27.44
2022-08-14T13:30:32.224Z,27.64
2022-08-14T13:33:06.783Z,27.79
2022-08-14T13:35:52.756Z,27.89
2022-08-14T13:38:23.183Z,28.22
2022-08-14T13:41:00.793Z,28.29
2022-08-14T13:43:31.418Z,28.11
2022-08-14T13:46:11.439Z,28.25
2022-08-14T13:48:38.543Z,28.36
2022-08-14T13:51:12.804Z,28.57
2022-08-14T13:53:52.625Z,28.69
2022-08-14T13:56:37.752Z,28.75
2022-08-14T13:59:05.216Z,28.62
2022-08-14T14:01:44.870Z,28.50
2022-08-14T14:04:21.896Z,28.37
2022-08-14T14:06:56.776Z,28.26
2022-08-14T14:09:51.172Z,28.18
2022-08-14T14:12:36.601Z,28.10
2022-08-14T14:15:09.503Z,28.35
2022-08-14T14:17:44.008Z,28.62
2022-08-14T14:20:35.327Z,28.77
2022-08-14T14:23:11.528Z,28.85
2022-08-14T14:25:56.268Z,28.89
2022-08-14T14:28:28.770Z,28.83
2022-08-14T14:31:06.894Z,28.79
2022-08-14T14:33:49.188Z,28.88
2022-08-14T14:36:20.823Z,28.94
2022-08-14T14:38:59.801Z,28.89
2022-08-14T14:41:38.282Z,29.02
2022-08-14T14:44:18.759Z,29.23
2022-08-14T14:46:51.134Z,29.31
2022-08-14T14:49:41.780Z,29.47
2022-08-14T14:52:23.428Z,29.53
2022-08-14T14:55:01.777Z,29.60
2022-08-14T14:57:34.756Z,29.65
2022-08-14T15:00:19.926Z,29.67
2022-08-14T15:02:57.715Z,29.68
2022-08-14T15:05:33.105Z,29.66
2022-08-14T15:07:59.667Z,29.65
2022-08-14T15:10:39.846Z,29.64
2022-08-14T15:13:12.745Z,29.50
2022-08-14T15:15:39.714Z,29.46
2022-08-14T15:18:36.377Z,29.54
2022-08-14T15:21:08.732Z,29.44
2022-08-14T15:23:44.206Z,29.45
2022-08-14T15:26:24.298Z,29.52
2022-08-14T15:29:09.758Z,29.47
2022-08-14T15:31:42.738Z,29.56
2022-08-14T15:34:45.605Z,29.67
2022-08-14T15:37:10.778Z,29.68
2022-08-14T15:39:38.501Z,29.60
2022-08-14T15:42:16.596Z,29.45
2022-08-14T15:44:57.238Z,29.51
2022-08-14T15:47:33.741Z,29.45
2022-08-14T15:50:04.488Z,29.14
2022-08-14T15:52:39.738Z,28.98
2022-08-14T15:55:08.752Z,28.84
2022-08-14T15:58:01.437Z,28.80
2022-08-14T16:00:54.645Z,28.64
2022-08-14T16:03:41.043Z,28.67
2022-08-14T16:06:18.814Z,28.55
2022-08-14T16:08:46.442Z,28.54
2022-08-14T16:11:23.775Z,28.50
2022-08-14T16:13:50.516Z,28.42
2022-08-14T16:16:47.545Z,28.47
2022-08-14T16:19:12.922Z,28.42
2022-08-14T16:22:02.079Z,28.36
2022-08-14T16:24:57.820Z,28.25
2022-08-14T16:27:39.022Z,28.21
2022-08-14T16:30:24.724Z,28.01
2022-08-14T16:33:02.155Z,28.01
2022-08-14T16:35:42.923Z,27.92
2022-08-14T16:38:45.273Z,27.77
2022-08-14T16:41:23.860Z,27.72
2022-08-14T16:43:52.340Z,27.73
2022-08-14T16:46:26.735Z,27.71
2022-08-14T16:48:58.473Z,27.73
2022-08-14T16:51:36.223Z,27.67
2022-08-14T16:54:20.714Z,27.63
2022-08-14T16:57:25.762Z,27.58
2022-08-14T16:59:57.580Z,27.58
2022-08-14T17:03:11.684Z,27.54
2022-08-14T17:05:43.417Z,27.52
2022-08-14T17:08:32.737Z,27.46
2022-08-14T17:11:15.737Z,27.36
2022-08-14T17:13:58.556Z,27.27
2022-08-14T17:16:35.758Z,27.14
2022-08-14T17:19:05.470Z,27.00
2022-08-14T17:21:46.813Z,26.91
2022-08-14T17:24:56.043Z,26.80
2022-08-14T17:27:08.794Z,26.66
2022-08-14T17:29:44.591Z,26.54
2022-08-14T17:32:44.250Z,26.40
2022-08-14T17:35:18.770Z,26.28
2022-08-14T17:37:48.482Z,26.17
2022-08-14T17:40:30.836Z,26.09
2022-08-14T17:43:07.779Z,25.99
2022-08-14T17:45:38.954Z,25.90
2022-08-14T17:49:16.056Z,25.82
2022-08-14T17:51:03.307Z,25.72
2022-08-14T17:53:53.284Z,25.64
2022-08-14T17:56:29.019Z,25.56
2022-08-14T17:59:09.927Z,25.49
2022-08-14T18:01:45.835Z,25.43
2022-08-14T18:04:28.976Z,25.33
2022-08-14T18:07:16.283Z,25.24
2022-08-14T18:09:58.586Z,25.16
2022-08-14T18:12:37.167Z,25.08
2022-08-14T18:15:22.732Z,25.05
2022-08-14T18:18:12.735Z,24.96
2022-08-14T18:21:40.517Z,24.91
2022-08-14T18:23:42.083Z,24.87
2022-08-14T18:26:36.001Z,24.81
2022-08-14T18:29:14.776Z,24.73
2022-08-14T18:31:50.237Z,24.67
2022-08-14T18:34:32.322Z,24.60
2022-08-14T18:37:09.465Z,24.55
2022-08-14T18:40:03.299Z,24.51
2022-08-14T18:42:34.971Z,24.48
2022-08-14T18:45:12.995Z,24.44
2022-08-14T18:48:14.787Z,24.39
2022-08-14T18:50:56.724Z,24.32
2022-08-14T18:53:24.893Z,24.27
2022-08-14T18:55:59.913Z,24.22
2022-08-14T18:58:58.447Z,24.13
2022-08-14T19:01:33.406Z,24.09
2022-08-14T19:04:13.720Z,24.07
2022-08-14T19:06:55.730Z,24.02
2022-08-14T19:09:50.291Z,23.98
2022-08-14T19:13:04.878Z,23.94
2022-08-14T19:15:56.522Z,23.90
2022-08-14T19:18:28.146Z,23.85
2022-08-14T19:21:03.812Z,23.80
2022-08-14T19:23:43.924Z,23.76
2022-08-14T19:26:34.661Z,23.72
2022-08-14T19:29:37.772Z,23.68
2022-08-14T19:32:26.232Z,23.63
2022-08-14T19:35:02.410Z,23.62
2022-08-14T19:37:57.739Z,23.58
2022-08-14T19:40:40.040Z,23.54
2022-08-14T19:43:13.706Z,23.52
2022-08-14T19:45:46.741Z,23.48
2022-08-14T19:48:15.652Z,23.44
2022-08-14T19:50:52.755Z,23.42
2022-08-14T19:53:19.840Z,23.41
2022-08-14T19:56:08.720Z,23.39
2022-08-14T19:58:54.468Z,23.37
2022-08-14T20:01:40.777Z,23.34
2022-08-14T20:04:45.456Z,23.32
2022-08-14T20:07:15.747Z,23.30
2022-08-14T20:11:03.588Z,23.29
2022-08-14T20:12:57.373Z,23.28
2022-08-14T20:15:26.891Z,23.25
2022-08-14T20:18:45.960Z,23.22
2022-08-14T20:21:14.913Z,23.19
2022-08-14T20:23:41.499Z,23.18
2022-08-14T20:26:31.918Z,23.15
2022-08-14T20:29:09.802Z,23.14
2022-08-14T20:31:48.757Z,23.11
2022-08-14T20:34:35.283Z,23.08
2022-08-14T20:37:10.441Z,23.04
2022-08-14T20:39:43.652Z,23.01
2022-08-14T20:42:43.579Z,23.02
2022-08-14T20:45:29.784Z,22.99
2022-08-14T20:48:01.280Z,22.96
2022-08-14T20:50:35.730Z,22.94
2022-08-14T20:53:28.714Z,22.90
2022-08-14T20:56:28.435Z,22.86
2022-08-14T20:58:52.343Z,22.84
2022-08-14T21:01:32.551Z,22.84
2022-08-14T21:04:14.229Z,22.81
2022-08-14T21:07:22.841Z,22.78
2022-08-14T21:10:03.461Z,22.77
2022-08-14T21:12:34.208Z,22.72
2022-08-14T21:15:13.755Z,22.70
2022-08-14T21:17:41.517Z,22.68
2022-08-14T21:20:25.317Z,22.67
2022-08-14T21:22:53.329Z,22.65
2022-08-14T21:25:31.927Z,22.61
2022-08-14T21:28:03.289Z,22.53
2022-08-14T21:30:41.867Z,22.45
2022-08-14T21:33:14.140Z,22.41
2022-08-14T21:35:55.450Z,22.37
2022-08-14T21:38:31.252Z,22.30
2022-08-14T21:41:41.290Z,22.23
2022-08-14T21:44:05.247Z,22.17
2022-08-14T21:46:55.795Z,22.14
2022-08-14T21:49:38.530Z,22.08
2022-08-14T21:52:49.380Z,22.03
2022-08-14T21:55:09.098Z,21.99
2022-08-14T21:57:56.044Z,22.00
2022-08-14T22:00:36.583Z,22.00
2022-08-14T22:03:17.291Z,22.02
2022-08-14T22:05:51.699Z,22.03
2022-08-14T22:08:19.565Z,22.04
2022-08-14T22:10:53.709Z,22.04
2022-08-14T22:13:22.019Z,22.03
2022-08-14T22:15:59.924Z,22.01
2022-08-14T22:18:29.853Z,21.97
2022-08-14T22:21:05.754Z,21.95
2022-08-14T22:23:41.709Z,21.93
2022-08-14T22:26:21.866Z,21.87
2022-08-14T22:32:58.509Z,21.81
2022-08-14T22:36:13.494Z,21.79
2022-08-14T22:40:46.700Z,21.82
2022-08-14T22:42:26.752Z,21.80
2022-08-14T22:45:10.868Z,21.77
2022-08-14T22:47:40.650Z,21.73
2022-08-14T22:50:29.054Z,21.67
2022-08-14T22:56:07.214Z,21.53
2022-08-14T22:58:43.787Z,21.53
2022-08-14T23:01:22.643Z,21.50
2022-08-14T23:04:02.737Z,21.46
2022-08-14T23:07:02.682Z,21.45
2022-08-14T23:09:36.693Z,21.38
2022-08-14T23:12:28.515Z,21.37
2022-08-14T23:15:02.736Z,21.37
2022-08-14T23:17:38.841Z,21.36
2022-08-14T23:20:19.724Z,21.35
2022-08-14T23:22:47.765Z,21.33
2022-08-14T23:25:56.693Z,21.31
2022-08-14T23:28:33.520Z,21.29
2022-08-14T23:31:01.692Z,21.25
2022-08-14T23:33:35.703Z,21.28
2022-08-14T23:36:31.657Z,21.30
2022-08-14T23:39:10.341Z,21.27
2022-08-14T23:41:45.869Z,21.33
2022-08-14T23:44:26.721Z,21.22
2022-08-14T23:47:05.445Z,21.14
2022-08-14T23:50:00.474Z,21.08
2022-08-14T23:52:50.707Z,21.05
2022-08-14T23:55:30.678Z,21.02
2022-08-14T23:58:07.774Z,20.99
